createdAt,value
2018-07-08T00:00:47.746Z,13.30
2018-07-08T00:03:15.389Z,17.15
2018-07-08T00:05:42.960Z,13.27
2018-07-08T00:08:10.481Z,11.87
2018-07-08T00:10:39.486Z,13.10
2018-07-08T00:13:08.241Z,13.63
2018-07-08T00:15:35.971Z,15.10
2018-07-08T00:18:03.691Z,13.43
2018-07-08T00:20:31.501Z,13.67
2018-07-08T00:22:59.230Z,17.33
2018-07-08T00:25:26.800Z,15.03
2018-07-08T00:27:54.562Z,16.90
2018-07-08T00:30:22.255Z,16.73
2018-07-08T00:32:49.927Z,16.27
2018-07-08T00:35:17.489Z,16.93
2018-07-08T00:37:45.241Z,14.63
2018-07-08T00:40:12.929Z,17.80
2018-07-08T00:42:40.641Z,16.97
2018-07-08T00:45:08.230Z,18.13
2018-07-08T00:47:35.795Z,18.67
2018-07-08T00:50:03.556Z,18.03
2018-07-08T00:52:31.278Z,18.37
2018-07-08T00:57:29.101Z,14.63
2018-07-08T00:59:56.759Z,13.87
2018-07-08T01:02:24.531Z,14.80
2018-07-08T01:04:52.094Z,15.03
2018-07-08T01:07:19.729Z,14.60
2018-07-08T01:09:47.274Z,13.87
2018-07-08T01:12:14.984Z,15.27
2018-07-08T01:14:42.758Z,14.70
2018-07-08T01:17:10.343Z,14.60
2018-07-08T01:19:37.975Z,18.40
2018-07-08T01:22:05.660Z,14.63
2018-07-08T01:24:33.335Z,15.97
2018-07-08T01:27:00.870Z,17.73
2018-07-08T01:29:28.615Z,15.70
2018-07-08T01:31:56.146Z,17.33
2018-07-08T01:34:23.698Z,15.87
2018-07-08T01:36:51.355Z,14.73
2018-07-08T01:39:19.003Z,16.30
2018-07-08T01:41:46.511Z,18.77
2018-07-08T01:44:14.117Z,18.07
2018-07-08T01:46:41.769Z,15.43
2018-07-08T01:49:09.502Z,16.33
2018-07-08T01:51:37.205Z,14.43
2018-07-08T01:54:04.959Z,20.23
2018-07-08T01:56:32.676Z,15.73
2018-07-08T01:59:00.434Z,16.27
2018-07-08T02:01:28.122Z,16.77
2018-07-08T02:03:55.877Z,15.20
2018-07-08T02:06:23.643Z,15.40
2018-07-08T02:08:51.311Z,15.23
2018-07-08T02:11:19.252Z,15.53
2018-07-08T02:13:46.799Z,14.83
2018-07-08T02:16:14.404Z,17.73
2018-07-08T02:18:42.375Z,15.93
2018-07-08T02:21:10.092Z,16.60
2018-07-08T02:23:37.869Z,15.27
2018-07-08T02:26:05.664Z,18.00
2018-07-08T02:28:33.239Z,19.87
2018-07-08T02:31:01.135Z,17.33
2018-07-08T02:33:28.865Z,14.07
2018-07-08T02:35:56.601Z,14.00
2018-07-08T02:38:24.397Z,17.23
2018-07-08T02:40:52.203Z,15.00
2018-07-08T02:43:19.982Z,15.17
2018-07-08T02:45:47.932Z,14.20
2018-07-08T02:48:15.547Z,13.50
2018-07-08T02:50:43.287Z,15.43
2018-07-08T02:53:10.970Z,14.77
2018-07-08T02:55:38.585Z,14.40
2018-07-08T02:58:06.140Z,15.57
2018-07-08T03:00:33.832Z,16.10
2018-07-08T03:03:01.373Z,17.33
2018-07-08T03:05:29.016Z,17.30
2018-07-08T03:07:57.597Z,18.23
2018-07-08T03:10:25.145Z,16.33
2018-07-08T03:12:52.760Z,15.57
2018-07-08T03:15:20.435Z,20.33
2018-07-08T03:17:48.100Z,18.90
2018-07-08T03:20:15.801Z,18.40
2018-07-08T03:22:43.474Z,16.20
2018-07-08T03:25:11.031Z,19.60
2018-07-08T03:27:38.593Z,22.67
2018-07-08T03:30:06.340Z,20.00
2018-07-08T03:32:33.998Z,19.57
2018-07-08T03:35:01.659Z,20.60
2018-07-08T03:37:29.320Z,18.33
2018-07-08T03:39:56.876Z,18.80
2018-07-08T03:42:24.394Z,17.00
2018-07-08T03:44:52.045Z,16.80
2018-07-08T03:47:19.752Z,15.03
2018-07-08T03:49:47.437Z,12.30
2018-07-08T03:52:15.140Z,12.90
2018-07-08T03:54:42.835Z,13.70
2018-07-08T03:57:10.366Z,13.37
2018-07-08T03:59:38.121Z,18.87
2018-07-08T04:02:05.918Z,20.93
2018-07-08T04:04:34.395Z,20.20
2018-07-08T04:07:02.112Z,16.47
2018-07-08T04:09:29.651Z,16.07
2018-07-08T04:11:57.210Z,16.23
2018-07-08T04:14:24.859Z,13.70
2018-07-08T04:16:52.513Z,14.57
2018-07-08T04:19:20.191Z,20.20
2018-07-08T04:21:47.807Z,20.17
2018-07-08T04:24:15.636Z,20.27
2018-07-08T04:26:43.293Z,15.03
2018-07-08T04:29:10.857Z,13.33
2018-07-08T04:31:38.516Z,18.17
2018-07-08T04:34:06.277Z,12.80
2018-07-08T04:36:33.792Z,13.70
2018-07-08T04:39:01.474Z,14.10
2018-07-08T04:41:29.012Z,17.30
2018-07-08T04:43:56.675Z,17.13
2018-07-08T04:46:24.435Z,15.40
2018-07-08T04:48:52.146Z,16.63
2018-07-08T04:51:19.861Z,15.27
2018-07-08T04:53:47.501Z,16.27
2018-07-08T04:56:15.166Z,13.10
2018-07-08T04:58:42.842Z,16.53
2018-07-08T05:01:10.542Z,14.97
2018-07-08T05:03:38.272Z,12.40
2018-07-08T05:06:05.841Z,15.37
2018-07-08T05:08:33.397Z,13.77
2018-07-08T05:11:01.089Z,16.37
2018-07-08T05:13:28.788Z,16.37
2018-07-08T05:15:56.460Z,17.20
2018-07-08T05:18:24.155Z,16.17
2018-07-08T05:20:51.827Z,12.47
2018-07-08T05:23:19.471Z,13.87
2018-07-08T05:25:47.091Z,14.40
2018-07-08T05:28:14.741Z,13.80
2018-07-08T05:30:42.251Z,14.90
2018-07-08T05:33:09.931Z,14.60
2018-07-08T05:35:37.686Z,14.20
2018-07-08T05:38:05.249Z,14.57
2018-07-08T05:40:32.895Z,13.77
2018-07-08T05:43:00.549Z,12.67
2018-07-08T05:45:28.233Z,14.47
2018-07-08T05:47:55.816Z,14.83
2018-07-08T05:50:23.538Z,15.60
2018-07-08T05:52:51.068Z,13.10
2018-07-08T05:55:18.758Z,12.97
2018-07-08T05:57:46.412Z,13.27
2018-07-08T06:00:14.197Z,11.87
2018-07-08T06:02:41.756Z,11.60
2018-07-08T06:05:09.511Z,11.07
2018-07-08T06:07:37.211Z,10.03
2018-07-08T06:10:04.928Z,9.40
2018-07-08T06:12:32.448Z,10.63
2018-07-08T06:15:00.033Z,8.90
2018-07-08T06:17:27.731Z,9.13
2018-07-08T06:19:55.451Z,9.90
2018-07-08T06:22:23.013Z,8.07
2018-07-08T06:24:50.693Z,7.83
2018-07-08T06:27:18.244Z,9.00
2018-07-08T06:29:45.947Z,7.20
2018-07-08T06:32:13.627Z,6.50
2018-07-08T06:34:41.287Z,7.83
2018-07-08T06:37:09.073Z,6.90
2018-07-08T06:39:36.763Z,6.40
2018-07-08T06:42:04.498Z,7.60
2018-07-08T06:44:32.014Z,7.40
2018-07-08T06:46:59.743Z,7.50
2018-07-08T06:49:27.297Z,7.83
2018-07-08T06:51:55.036Z,7.30
2018-07-08T06:54:22.553Z,7.53
2018-07-08T06:56:50.338Z,7.50
2018-07-08T06:59:18.041Z,6.97
2018-07-08T07:01:45.641Z,6.90
2018-07-08T07:04:13.361Z,7.80
2018-07-08T07:06:41.093Z,8.33
2018-07-08T07:09:09.823Z,7.80
2018-07-08T07:11:37.908Z,7.70
2018-07-08T07:14:05.561Z,7.60
2018-07-08T07:16:33.535Z,7.60
2018-07-08T07:19:01.248Z,7.80
2018-07-08T07:21:28.907Z,7.20
2018-07-08T07:23:56.623Z,7.60
2018-07-08T07:26:24.346Z,7.50
2018-07-08T07:28:52.122Z,6.63
2018-07-08T07:31:19.817Z,6.70
2018-07-08T07:33:47.573Z,7.07
2018-07-08T07:36:15.342Z,7.50
2018-07-08T07:38:43.109Z,7.60
2018-07-08T07:41:10.691Z,7.93
2018-07-08T07:43:38.418Z,8.33
2018-07-08T07:46:06.093Z,9.37
2018-07-08T07:48:33.697Z,9.60
2018-07-08T07:51:01.292Z,10.73
2018-07-08T07:53:29.004Z,8.60
2018-07-08T07:55:56.744Z,9.53
2018-07-08T07:58:24.463Z,8.47
2018-07-08T08:00:52.234Z,8.33
2018-07-08T08:03:19.923Z,8.53
2018-07-08T08:05:47.689Z,7.60
2018-07-08T08:08:15.359Z,7.00
2018-07-08T08:10:43.131Z,7.90
2018-07-08T08:13:10.685Z,6.53
2018-07-08T08:15:38.257Z,5.27
2018-07-08T08:18:05.797Z,5.80
2018-07-08T08:20:33.537Z,5.53
2018-07-08T08:23:01.198Z,5.83
2018-07-08T08:25:28.912Z,5.53
2018-07-08T08:27:56.605Z,5.60
2018-07-08T08:30:24.342Z,5.23
2018-07-08T08:32:52.153Z,5.10
2018-07-08T08:35:20.254Z,5.73
2018-07-08T08:37:49.038Z,5.20
2018-07-08T08:40:17.683Z,5.40
2018-07-08T08:42:45.404Z,5.17
2018-07-08T08:45:14.369Z,5.27
2018-07-08T08:47:41.944Z,5.87
2018-07-08T08:50:09.917Z,4.90
2018-07-08T08:52:38.019Z,4.90
2018-07-08T08:55:06.534Z,4.40
2018-07-08T08:57:34.139Z,5.43
2018-07-08T09:00:01.746Z,5.33
2018-07-08T09:02:29.323Z,5.20
2018-07-08T09:04:56.962Z,5.20
2018-07-08T09:07:24.802Z,6.13
2018-07-08T09:09:52.498Z,5.47
2018-07-08T09:12:20.238Z,5.57
2018-07-08T09:14:47.998Z,5.27
2018-07-08T09:17:15.588Z,6.97
2018-07-08T09:19:43.258Z,5.77
2018-07-08T09:22:11.227Z,5.53
2018-07-08T09:24:39.113Z,5.93
2018-07-08T09:27:06.853Z,5.60
2018-07-08T09:29:34.569Z,5.77
2018-07-08T09:32:02.124Z,5.50
2018-07-08T09:34:29.989Z,5.97
2018-07-08T09:36:58.051Z,5.77
2018-07-08T09:39:25.794Z,4.30
2018-07-08T09:41:53.390Z,5.27
2018-07-08T09:44:21.108Z,4.70
2018-07-08T09:46:49.048Z,4.53
2018-07-08T09:49:16.888Z,4.20
2018-07-08T09:51:45.043Z,4.03
2018-07-08T09:54:12.808Z,3.90
2018-07-08T09:56:40.443Z,3.97
2018-07-08T09:59:08.141Z,4.17
2018-07-08T10:01:46.708Z,4.10
2018-07-08T10:04:24.645Z,3.60
2018-07-08T10:06:53.188Z,3.50
2018-07-08T10:09:22.087Z,3.37
2018-07-08T10:11:50.762Z,3.10
2018-07-08T10:14:19.600Z,3.20
2018-07-08T10:16:47.239Z,3.27
2018-07-08T10:19:15.961Z,4.00
2018-07-08T10:21:43.678Z,3.70
2018-07-08T10:24:11.337Z,3.20
2018-07-08T10:26:39.061Z,3.10
2018-07-08T10:29:06.945Z,3.30
2018-07-08T10:31:40.243Z,3.83
2018-07-08T10:34:08.008Z,4.10
2018-07-08T10:36:35.767Z,5.13
2018-07-08T10:39:04.563Z,5.77
2018-07-08T10:41:32.200Z,4.70
2018-07-08T10:43:59.969Z,4.37
2018-07-08T10:46:27.708Z,5.53
2018-07-08T10:48:55.389Z,5.60
2018-07-08T10:51:23.139Z,6.13
2018-07-08T10:53:50.700Z,5.73
2018-07-08T10:56:18.398Z,5.67
2018-07-08T10:58:46.162Z,6.37
2018-07-08T11:01:13.740Z,5.20
2018-07-08T11:03:41.499Z,5.10
2018-07-08T11:06:09.287Z,6.13
2018-07-08T11:08:36.889Z,4.97
2018-07-08T11:11:05.043Z,4.97
2018-07-08T11:13:32.822Z,5.20
2018-07-08T11:16:00.549Z,4.00
2018-07-08T11:18:29.081Z,4.10
2018-07-08T11:20:56.871Z,4.20
2018-07-08T11:23:24.527Z,3.50
2018-07-08T11:25:52.226Z,4.40
2018-07-08T11:28:19.915Z,3.47
2018-07-08T11:30:47.643Z,3.80
2018-07-08T11:33:15.364Z,3.90
2018-07-08T11:35:42.908Z,4.67
2018-07-08T11:38:10.675Z,3.93
2018-07-08T11:40:38.229Z,3.63
2018-07-08T11:43:05.951Z,3.10
2018-07-08T11:45:33.488Z,3.47
2018-07-08T11:48:01.110Z,3.47
2018-07-08T11:50:28.802Z,3.13
2018-07-08T11:52:56.430Z,2.63
2018-07-08T11:55:24.180Z,3.20
2018-07-08T11:57:51.812Z,2.77
2018-07-08T12:00:19.688Z,3.30
2018-07-08T12:02:47.419Z,2.53
2018-07-08T12:05:16.055Z,2.83
2018-07-08T12:07:43.833Z,2.90
2018-07-08T12:10:11.574Z,3.00
2018-07-08T12:12:39.185Z,3.50
2018-07-08T12:15:06.956Z,2.70
2018-07-08T12:17:34.726Z,2.93
2018-07-08T12:20:02.740Z,2.70
2018-07-08T12:22:30.541Z,2.70
2018-07-08T12:24:58.085Z,2.80
2018-07-08T12:27:25.788Z,3.10
2018-07-08T12:29:53.793Z,2.95
2018-07-08T12:32:21.513Z,3.00
2018-07-08T12:34:49.363Z,2.90
2018-07-08T12:37:16.938Z,2.70
2018-07-08T12:39:44.646Z,2.75
2018-07-08T12:42:12.330Z,2.60
2018-07-08T12:44:40.159Z,2.80
2018-07-08T12:47:07.898Z,2.52
2018-07-08T12:49:35.623Z,2.87
2018-07-08T12:52:03.381Z,2.85
2018-07-08T12:54:30.960Z,2.60
2018-07-08T12:56:58.706Z,2.62
2018-07-08T12:59:26.262Z,2.65
2018-07-08T13:01:55.043Z,2.70
2018-07-08T13:04:22.853Z,2.90
2018-07-08T13:06:50.458Z,2.50
2018-07-08T13:09:18.184Z,2.30
2018-07-08T13:11:45.855Z,2.55
2018-07-08T13:14:13.488Z,2.62
2018-07-08T13:16:41.101Z,2.98
2018-07-08T13:19:08.679Z,2.47
2018-07-08T13:21:36.281Z,2.20
2018-07-08T13:24:04.019Z,2.50
2018-07-08T13:26:31.875Z,2.15
2018-07-08T13:28:59.363Z,2.50
2018-07-08T13:31:26.940Z,2.20
2018-07-08T13:33:54.635Z,2.20
2018-07-08T13:36:22.347Z,2.20
2018-07-08T13:38:50.129Z,2.47
2018-07-08T13:41:17.853Z,2.40
2018-07-08T13:43:45.708Z,2.05
2018-07-08T13:46:13.281Z,2.25
2018-07-08T13:48:40.990Z,2.12
2018-07-08T13:51:09.230Z,1.95
2018-07-08T13:53:40.028Z,2.00
2018-07-08T13:56:08.303Z,2.02
2018-07-08T13:58:37.609Z,2.08
2018-07-08T14:01:08.190Z,2.20
2018-07-08T14:03:36.396Z,2.47
2018-07-08T14:06:04.653Z,2.25
2018-07-08T14:08:34.031Z,1.80
2018-07-08T14:11:03.736Z,2.10
2018-07-08T14:13:31.470Z,1.90
2018-07-08T14:16:00.594Z,2.12
2018-07-08T14:18:29.384Z,2.12
2018-07-08T14:20:59.939Z,2.08
2018-07-08T14:23:27.641Z,2.20
2018-07-08T14:25:57.032Z,2.27
2018-07-08T14:28:26.576Z,2.10
2018-07-08T14:30:54.676Z,2.25
2018-07-08T14:33:22.980Z,2.00
2018-07-08T14:35:50.686Z,2.22
2018-07-08T14:38:18.427Z,2.37
2018-07-08T14:40:46.153Z,2.10
2018-07-08T14:43:13.869Z,1.95
2018-07-08T14:45:41.579Z,2.10
2018-07-08T14:48:09.240Z,2.37
2018-07-08T14:50:36.946Z,2.05
2018-07-08T14:53:04.855Z,1.87
2018-07-08T14:55:32.570Z,4.30
2018-07-08T14:58:01.136Z,2.30
2018-07-08T15:00:28.821Z,2.10
2018-07-08T15:02:56.449Z,2.33
2018-07-08T15:05:25.690Z,2.30
2018-07-08T15:07:55.026Z,2.10
2018-07-08T15:10:24.665Z,2.30
2018-07-08T15:12:53.611Z,2.12
2018-07-08T15:15:22.547Z,2.00
2018-07-08T15:17:51.319Z,2.17
2018-07-08T15:20:19.144Z,2.40
2018-07-08T15:22:47.091Z,2.90
2018-07-08T15:25:16.344Z,2.27
2018-07-08T15:27:44.129Z,2.60
2018-07-08T15:30:12.804Z,2.10
2018-07-08T15:32:41.825Z,2.62
2018-07-08T15:35:12.720Z,2.35
2018-07-08T15:37:42.258Z,2.10
2018-07-08T15:40:10.721Z,1.98
2018-07-08T15:42:38.981Z,2.02
2018-07-08T15:45:09.593Z,2.42
2018-07-08T15:47:38.032Z,2.15
2018-07-08T15:50:07.780Z,1.93
2018-07-08T15:52:35.509Z,2.30
2018-07-08T15:55:03.292Z,2.05
2018-07-08T15:57:31.107Z,2.00
2018-07-08T15:59:59.062Z,2.57
2018-07-08T16:02:27.009Z,2.90
2018-07-08T16:04:54.711Z,2.70
2018-07-08T16:07:22.849Z,2.90
2018-07-08T16:09:51.666Z,2.63
2018-07-08T16:12:20.752Z,2.03
2018-07-08T16:14:49.909Z,2.10
2018-07-08T16:17:17.495Z,1.83
2018-07-08T16:19:48.297Z,1.80
2018-07-08T16:22:18.677Z,2.13
2018-07-08T16:24:48.914Z,1.70
2018-07-08T16:27:17.180Z,1.70
2018-07-08T16:29:46.998Z,2.10
2018-07-08T16:32:15.420Z,2.00
2018-07-08T16:34:45.950Z,1.90
2018-07-08T16:37:14.767Z,1.77
2018-07-08T16:39:43.285Z,1.70
2018-07-08T16:42:11.995Z,1.80
2018-07-08T16:44:39.745Z,1.90
2018-07-08T16:47:07.517Z,1.90
2018-07-08T16:49:36.017Z,1.50
2018-07-08T16:52:03.743Z,1.80
2018-07-08T16:54:31.500Z,1.70
2018-07-08T16:56:59.271Z,1.67
2018-07-08T16:59:26.981Z,1.80
2018-07-08T17:01:54.828Z,2.17
2018-07-08T17:04:22.597Z,1.80
2018-07-08T17:06:50.235Z,1.70
2018-07-08T17:09:17.866Z,1.70
2018-07-08T17:11:45.516Z,1.90
2018-07-08T17:14:13.200Z,1.53
2018-07-08T17:16:40.857Z,1.73
2018-07-08T17:19:08.485Z,1.60
2018-07-08T17:21:36.035Z,1.87
2018-07-08T17:24:03.621Z,1.70
2018-07-08T17:26:31.277Z,1.70
2018-07-08T17:28:58.827Z,1.80
2018-07-08T17:31:26.632Z,1.77
2018-07-08T17:33:54.404Z,1.87
2018-07-08T17:36:22.991Z,1.57
2018-07-08T17:38:50.552Z,1.87
2018-07-08T17:41:18.126Z,1.60
2018-07-08T17:43:45.836Z,1.67
2018-07-08T17:46:13.625Z,1.50
2018-07-08T17:48:41.343Z,1.37
2018-07-08T17:51:08.931Z,1.80
2018-07-08T17:53:36.685Z,1.40
2018-07-08T17:56:04.615Z,1.23
2018-07-08T17:58:32.195Z,1.70
2018-07-08T18:00:59.735Z,2.00
2018-07-08T18:03:27.457Z,1.67
2018-07-08T18:05:55.332Z,1.80
2018-07-08T18:08:22.970Z,1.50
2018-07-08T18:10:50.551Z,1.63
2018-07-08T18:13:18.276Z,2.10
2018-07-08T18:15:46.087Z,1.37
2018-07-08T18:18:13.947Z,1.50
2018-07-08T18:20:41.468Z,1.60
2018-07-08T18:23:09.267Z,1.60
2018-07-08T18:25:36.893Z,1.33
2018-07-08T18:28:04.645Z,1.40
2018-07-08T18:30:33.957Z,1.57
2018-07-08T18:33:02.044Z,1.67
2018-07-08T18:35:29.894Z,1.33
2018-07-08T18:37:57.686Z,1.20
2018-07-08T18:40:25.567Z,1.27
2018-07-08T18:42:53.235Z,1.50
2018-07-08T18:45:20.835Z,1.83
2018-07-08T18:47:48.565Z,1.30
2018-07-08T18:50:16.136Z,1.53
2018-07-08T18:52:43.985Z,1.33
2018-07-08T18:55:11.811Z,1.67
2018-07-08T18:57:39.577Z,1.40
2018-07-08T19:00:07.327Z,1.33
2018-07-08T19:02:35.057Z,1.50
2018-07-08T19:05:03.669Z,1.30
2018-07-08T19:07:32.035Z,1.57
2018-07-08T19:10:00.363Z,1.20
2018-07-08T19:12:27.987Z,1.37
2018-07-08T19:14:55.807Z,1.60
2018-07-08T19:17:23.396Z,1.30
2018-07-08T19:19:50.969Z,1.30
2018-07-08T19:22:18.605Z,1.33
2018-07-08T19:24:46.260Z,1.33
2018-07-08T19:27:14.075Z,1.17
2018-07-08T19:29:41.637Z,1.50
2018-07-08T19:32:09.717Z,1.60
2018-07-08T19:34:39.085Z,1.67
2018-07-08T19:37:07.701Z,1.80
2018-07-08T19:39:36.452Z,1.33
2018-07-08T19:42:04.273Z,1.77
2018-07-08T19:44:36.147Z,1.73
2018-07-08T19:47:04.106Z,1.93
2018-07-08T19:49:31.649Z,1.80
2018-07-08T19:52:01.277Z,1.80
2018-07-08T19:54:28.856Z,1.70
2018-07-08T19:56:56.632Z,1.90
2018-07-08T19:59:25.048Z,1.87
2018-07-08T20:01:54.418Z,1.97
2018-07-08T20:04:23.008Z,2.03
2018-07-08T20:06:50.827Z,2.20
2018-07-08T20:09:20.058Z,2.13
2018-07-08T20:11:49.502Z,2.00
2018-07-08T20:14:17.904Z,2.10
2018-07-08T20:16:47.034Z,2.33
2018-07-08T20:19:14.871Z,2.40
2018-07-08T20:21:43.184Z,2.10
2018-07-08T20:24:11.962Z,2.90
2018-07-08T20:26:40.769Z,2.93
2018-07-08T20:29:09.360Z,2.30
2018-07-08T20:31:36.986Z,2.20
2018-07-08T20:34:04.747Z,2.67
2018-07-08T20:36:34.625Z,2.60
2018-07-08T20:39:03.708Z,2.40
2018-07-08T20:41:32.593Z,2.40
2018-07-08T20:44:01.489Z,2.57
2018-07-08T20:46:30.328Z,2.67
2018-07-08T20:48:58.170Z,2.40
2018-07-08T20:51:25.753Z,2.67
2018-07-08T20:53:54.733Z,2.53
2018-07-08T20:56:22.737Z,2.73
2018-07-08T20:58:50.476Z,2.50
2018-07-08T21:01:19.937Z,2.50
2018-07-08T21:03:47.873Z,2.30
2018-07-08T21:06:16.692Z,2.40
2018-07-08T21:08:45.191Z,2.27
2018-07-08T21:11:12.736Z,2.73
2018-07-08T21:13:40.423Z,2.13
2018-07-08T21:16:08.023Z,2.47
2018-07-08T21:18:36.483Z,2.43
2018-07-08T21:21:06.215Z,2.23
2018-07-08T21:23:35.947Z,2.20
2018-07-08T21:26:04.497Z,2.50
2018-07-08T21:28:32.063Z,2.50
2018-07-08T21:31:00.347Z,2.30
2018-07-08T21:33:28.081Z,2.47
2018-07-08T21:35:57.821Z,2.70
2018-07-08T21:38:27.160Z,2.30
2018-07-08T21:40:57.984Z,2.63
2018-07-08T21:43:26.373Z,2.47
2018-07-08T21:45:54.644Z,3.07
2018-07-08T21:48:23.520Z,3.20
2018-07-08T21:50:51.993Z,2.60
2018-07-08T21:53:20.936Z,3.03
2018-07-08T21:55:48.516Z,2.77
2018-07-08T21:58:16.181Z,2.67
2018-07-08T22:00:50.037Z,2.50
2018-07-08T22:03:17.728Z,2.73
2018-07-08T22:05:45.419Z,2.70
2018-07-08T22:08:13.091Z,2.40
2018-07-08T22:10:40.813Z,2.73
2018-07-08T22:13:08.339Z,2.17
2018-07-08T22:15:36.082Z,2.70
2018-07-08T22:18:03.791Z,2.07
2018-07-08T22:20:31.337Z,2.50
2018-07-08T22:22:58.916Z,2.60
2018-07-08T22:25:26.461Z,2.53
2018-07-08T22:27:54.154Z,2.60
2018-07-08T22:30:21.871Z,2.50
2018-07-08T22:32:49.593Z,2.70
2018-07-08T22:35:17.271Z,2.53
2018-07-08T22:37:45.067Z,2.63
2018-07-08T22:40:12.772Z,2.13
2018-07-08T22:42:40.423Z,2.73
2018-07-08T22:45:08.001Z,2.27
2018-07-08T22:47:35.687Z,2.80
2018-07-08T22:50:03.431Z,2.33
2018-07-08T22:52:31.032Z,2.53
2018-07-08T22:54:58.733Z,2.20
2018-07-08T22:57:26.480Z,2.37
2018-07-08T23:00:05.383Z,2.10
2018-07-08T23:02:40.628Z,1.93
2018-07-08T23:05:08.306Z,2.20
2018-07-08T23:07:36.454Z,2.20
2018-07-08T23:10:04.111Z,2.20
2018-07-08T23:12:31.678Z,2.40
2018-07-08T23:14:59.215Z,1.90
2018-07-08T23:17:26.748Z,2.37
2018-07-08T23:19:54.528Z,2.37
2018-07-08T23:22:33.218Z,2.30
2018-07-08T23:25:01.228Z,2.77
2018-07-08T23:27:28.919Z,2.67
2018-07-08T23:29:56.667Z,2.20
2018-07-08T23:32:24.695Z,2.23
2018-07-08T23:34:52.274Z,2.20
2018-07-08T23:37:19.853Z,2.07
2018-07-08T23:39:47.616Z,2.07
2018-07-08T23:42:15.319Z,1.90
2018-07-08T23:44:43.087Z,1.80
2018-07-08T23:47:10.907Z,2.30
2018-07-08T23:49:38.451Z,2.20
2018-07-08T23:52:06.142Z,2.43
2018-07-08T23:54:33.842Z,2.00
2018-07-08T23:57:01.431Z,2.17
2018-07-08T23:59:28.982Z,2.33
